Time;durP1;ratioP1;P1;durP2;ratioP2;P2;SDS_P1;SDS_P2;PMS_P1;PMS_P2;Temp;Humidity;BMP_temperature;BMP_pressure;BME280_temperature;BME280_humidity;BME280_pressure;Samples;Min_cycle;Max_cycle;Signal;HPM_P1;HPM_P2
2022/12/18 00:00:57;;;;;;;15.40;9.75;;;;;;;;;;5055826;28;20017;-81
2022/12/18 00:03:22;;;;;;;17.08;10.35;;;;;;;;;;5042020;28;20128;-81
2022/12/18 00:05:51;;;;;;;18.98;10.00;;;;;;;;;;5018494;28;20033;-80
2022/12/18 00:08:16;;;;;;;17.23;9.70;;;;;;;;;;5031172;28;20029;-80
2022/12/18 00:10:42;;;;;;;15.30;9.35;;;;;;;;;;5037160;28;20052;-81
2022/12/18 00:13:07;;;;;;;15.50;10.07;;;;;;;;;;5037566;28;20040;-80
2022/12/18 00:15:36;;;;;;;14.48;9.48;;;;;;;;;;5033975;28;20404;-80
2022/12/18 00:18:02;;;;;;;15.02;9.55;;;;;;;;;;5026561;28;20144;-80
2022/12/18 00:20:28;;;;;;;15.90;9.43;;;;;;;;;;5036578;28;20100;-79
2022/12/18 00:22:53;;;;;;;15.15;9.15;;;;;;;;;;5034085;28;20408;-80
2022/12/18 00:25:19;;;;;;;13.65;9.43;;;;;;;;;;5015571;28;20148;-81
2022/12/18 00:27:45;;;;;;;13.70;9.00;;;;;;;;;;5034626;28;20037;-80
2022/12/18 00:30:10;;;;;;;14.73;9.02;;;;;;;;;;5038212;28;20060;-79
2022/12/18 00:32:36;;;;;;;14.00;9.50;;;;;;;;;;5038329;28;20124;-80
2022/12/18 00:35:02;;;;;;;15.40;10.07;;;;;;;;;;5033826;28;20504;-80
2022/12/18 00:37:28;;;;;;;13.82;9.35;;;;;;;;;;5033241;28;20041;-80
2022/12/18 00:39:53;;;;;;;13.63;8.88;;;;;;;;;;5016971;28;20053;-79
2022/12/18 00:43:01;;;;;;;14.13;8.98;;;;;;;;;;5021472;28;20025;-80
2022/12/18 00:45:07;;;;;;;14.55;9.65;;;;;;;;;;5027943;28;20084;-80
2022/12/18 00:47:33;;;;;;;15.77;9.55;;;;;;;;;;5040326;28;20063;-80
2022/12/18 00:49:59;;;;;;;14.05;9.40;;;;;;;;;;5044171;28;20072;-79
2022/12/18 00:52:24;;;;;;;14.25;10.13;;;;;;;;;;5034136;28;20029;-80
2022/12/18 00:54:49;;;;;;;15.43;10.07;;;;;;;;;;5013377;28;20095;-82
2022/12/18 00:57:15;;;;;;;13.63;9.52;;;;;;;;;;5045707;28;20519;-81
2022/12/18 00:59:42;;;;;;;16.55;10.02;;;;;;;;;;5052112;28;20037;-80
2022/12/18 01:02:07;;;;;;;16.52;9.95;;;;;;;;;;5051003;28;20459;-79
2022/12/18 01:04:33;;;;;;;15.82;9.55;;;;;;;;;;5053149;28;20091;-79
2022/12/18 01:06:59;;;;;;;;;;;;;;;;;;5034636;28;20111;-80
2022/12/18 01:09:24;;;;;;;14.80;9.60;;;;;;;;;;5048472;28;19912;-80
2022/12/18 01:11:51;;;;;;;14.90;10.20;;;;;;;;;;5052391;28;20032;-80
2022/12/18 01:14:16;;;;;;;17.70;10.57;;;;;;;;;;5049768;28;20489;-82
2022/12/18 01:16:42;;;;;;;15.07;9.95;;;;;;;;;;5014375;28;20065;-81
2022/12/18 01:19:07;;;;;;;14.15;8.68;;;;;;;;;;4995085;28;20041;-81
2022/12/18 01:21:33;;;;;;;18.10;11.13;;;;;;;;;;5031972;28;20104;-80
2022/12/18 01:24:02;;;;;;;16.95;10.50;;;;;;;;;;5005953;28;20029;-81
2022/12/18 01:26:29;;;;;;;16.67;10.90;;;;;;;;;;4996548;28;20179;-82
2022/12/18 01:28:56;;;;;;;17.67;10.63;;;;;;;;;;5013673;28;20037;-80
2022/12/18 01:31:22;;;;;;;18.88;11.88;;;;;;;;;;5020484;28;20120;-80
2022/12/18 01:33:47;;;;;;;18.40;11.57;;;;;;;;;;5013764;28;20584;-80
2022/12/18 01:36:32;;;;;;;17.40;10.77;;;;;;;;;;5011989;28;20087;-80
2022/12/18 01:39:01;;;;;;;17.67;11.48;;;;;;;;;;4988989;28;20171;-80
2022/12/18 01:42:01;;;;;;;19.65;12.38;;;;;;;;;;4996798;28;20021;-79
2022/12/18 01:44:31;;;;;;;17.67;10.90;;;;;;;;;;5020102;28;20053;-79
2022/12/18 01:46:57;;;;;;;18.27;10.65;;;;;;;;;;5004474;28;20033;-79
2022/12/18 01:49:22;;;;;;;17.83;10.57;;;;;;;;;;4996572;28;20034;-78
2022/12/18 01:51:48;;;;;;;17.00;10.70;;;;;;;;;;5013706;28;20493;-80
2022/12/18 01:54:13;;;;;;;16.70;10.57;;;;;;;;;;5011174;28;20030;-80
2022/12/18 01:56:39;;;;;;;17.58;11.27;;;;;;;;;;5008595;28;20034;-80
2022/12/18 01:59:05;;;;;;;18.27;11.63;;;;;;;;;;5014871;28;20112;-80
2022/12/18 02:01:30;;;;;;;16.58;10.50;;;;;;;;;;4995522;28;20033;-80
2022/12/18 02:04:19;;;;;;;15.85;10.05;;;;;;;;;;5012782;28;20034;-79
2022/12/18 02:06:44;;;;;;;16.35;10.63;;;;;;;;;;5011724;28;20033;-79
2022/12/18 02:09:24;;;;;;;16.15;9.77;;;;;;;;;;5011953;28;20480;-80
2022/12/18 02:11:56;;;;;;;16.83;10.40;;;;;;;;;;4979350;28;20808;-80
2022/12/18 02:14:30;;;;;;;15.73;10.02;;;;;;;;;;5012426;28;20034;-81
2022/12/18 02:17:04;;;;;;;13.88;9.38;;;;;;;;;;4996670;28;20390;-80
2022/12/18 02:19:48;;;;;;;14.35;9.98;;;;;;;;;;4991782;28;20042;-80
2022/12/18 02:22:14;;;;;;;13.20;9.00;;;;;;;;;;5011678;28;20466;-81
2022/12/18 02:24:42;;;;;;;15.05;9.30;;;;;;;;;;5012240;28;20037;-81
2022/12/18 02:27:07;;;;;;;15.98;10.05;;;;;;;;;;5011273;28;20163;-80
2022/12/18 02:29:53;;;;;;;15.90;10.60;;;;;;;;;;5012350;28;20108;-81
2022/12/18 02:32:24;;;;;;;14.02;9.38;;;;;;;;;;5010134;28;20042;-81
2022/12/18 02:34:51;;;;;;;15.65;9.43;;;;;;;;;;5011451;28;20056;-80
2022/12/18 02:37:17;;;;;;;15.00;9.80;;;;;;;;;;4996156;28;20500;-80
2022/12/18 02:39:43;;;;;;;14.02;9.82;;;;;;;;;;4991480;28;20038;-79
2022/12/18 02:42:11;;;;;;;14.82;10.30;;;;;;;;;;4992753;28;20029;-79
2022/12/18 02:44:44;;;;;;;15.15;9.30;;;;;;;;;;5005934;28;20045;-80
2022/12/18 02:47:11;;;;;;;15.82;9.20;;;;;;;;;;5005211;28;20123;-82
2022/12/18 02:49:40;;;;;;;16.20;9.77;;;;;;;;;;4993914;28;20108;-81
2022/12/18 02:52:26;;;;;;;15.35;9.65;;;;;;;;;;5011931;28;20038;-81
2022/12/18 02:54:52;;;;;;;15.93;9.90;;;;;;;;;;5004067;28;20048;-80
2022/12/18 02:57:20;;;;;;;15.88;8.98;;;;;;;;;;5007883;28;20121;-81
2022/12/18 02:59:49;;;;;;;14.38;9.65;;;;;;;;;;5009385;28;20152;-82
2022/12/18 03:02:15;;;;;;;13.38;8.88;;;;;;;;;;5006907;28;20061;-82
2022/12/18 03:04:43;;;;;;;16.00;9.68;;;;;;;;;;5011116;28;20107;-81
2022/12/18 03:07:10;;;;;;;15.52;9.38;;;;;;;;;;4994972;28;20033;-81
2022/12/18 03:09:36;;;;;;;12.68;8.85;;;;;;;;;;5007314;28;20137;-80
2022/12/18 03:12:24;;;;;;;16.33;8.93;;;;;;;;;;5010595;28;20025;-80
2022/12/18 03:14:54;;;;;;;15.05;9.90;;;;;;;;;;5016336;28;20049;-80
2022/12/18 03:17:20;;;;;;;12.75;8.52;;;;;;;;;;5026140;28;20029;-80
2022/12/18 03:19:45;;;;;;;13.82;9.52;;;;;;;;;;5050416;28;20040;-80
2022/12/18 03:22:11;;;;;;;16.85;10.18;;;;;;;;;;5033807;28;20025;-79
2022/12/18 03:24:44;;;;;;;15.88;9.63;;;;;;;;;;5028559;28;20072;-81
2022/12/18 03:27:11;;;;;;;17.60;10.95;;;;;;;;;;5017448;28;20411;-81
2022/12/18 03:29:38;;;;;;;17.23;10.93;;;;;;;;;;5033983;28;20490;-80
2022/12/18 03:32:05;;;;;;;17.15;10.07;;;;;;;;;;5035988;28;20029;-81
2022/12/18 03:34:32;;;;;;;13.52;9.55;;;;;;;;;;5025621;28;20033;-80
2022/12/18 03:37:01;;;;;;;13.65;8.93;;;;;;;;;;5040611;28;20021;-80
2022/12/18 03:39:27;;;;;;;14.43;8.75;;;;;;;;;;5033270;28;20116;-80
2022/12/18 03:42:11;;;;;;;12.98;8.13;;;;;;;;;;5033617;28;20094;-79
2022/12/18 03:44:43;;;;;;;11.48;7.63;;;;;;;;;;5041586;28;20119;-80
2022/12/18 03:47:14;;;;;;;12.90;7.68;;;;;;;;;;5048859;28;20064;-81
2022/12/18 03:49:40;;;;;;;11.10;7.97;;;;;;;;;;5037426;28;20090;-80
2022/12/18 03:52:11;;;;;;;11.48;7.78;;;;;;;;;;5055258;28;20041;-80
2022/12/18 03:54:38;;;;;;;10.80;7.15;;;;;;;;;;5048532;28;20095;-81
2022/12/18 03:57:11;;;;;;;11.82;8.23;;;;;;;;;;5037826;28;20020;-81
2022/12/18 03:59:37;;;;;;;12.52;8.15;;;;;;;;;;5021630;28;20064;-79
2022/12/18 04:02:03;;;;;;;12.10;8.00;;;;;;;;;;5037918;28;20052;-80
2022/12/18 04:04:29;;;;;;;;;;;;;;;;;;5021185;28;20174;-80
2022/12/18 04:06:55;;;;;;;11.57;8.23;;;;;;;;;;5037928;28;19952;-81
2022/12/18 04:09:21;;;;;;;12.50;8.63;;;;;;;;;;5037493;28;20044;-80
2022/12/18 04:11:47;;;;;;;12.05;8.18;;;;;;;;;;5019460;28;20029;-80
2022/12/18 04:14:14;;;;;;;13.40;8.75;;;;;;;;;;5019135;28;20030;-80
2022/12/18 04:16:40;;;;;;;12.77;8.13;;;;;;;;;;5019575;28;20041;-80
2022/12/18 04:19:09;;;;;;;13.77;9.05;;;;;;;;;;5033062;28;20036;-79
2022/12/18 04:21:39;;;;;;;12.57;7.90;;;;;;;;;;5038071;28;20021;-80
2022/12/18 04:24:05;;;;;;;12.85;8.15;;;;;;;;;;5056397;28;20067;-79
2022/12/18 04:26:31;;;;;;;13.57;8.43;;;;;;;;;;5038775;28;20017;-80
2022/12/18 04:29:11;;;;;;;11.93;8.10;;;;;;;;;;5040307;28;20071;-80
2022/12/18 04:31:36;;;;;;;10.77;7.80;;;;;;;;;;5054600;28;20060;-81
2022/12/18 04:34:02;;;;;;;13.15;9.18;;;;;;;;;;5041742;28;20036;-79
2022/12/18 04:36:30;;;;;;;17.88;11.80;;;;;;;;;;5006754;28;20183;-79
2022/12/18 04:38:56;;;;;;;10.90;7.65;;;;;;;;;;5043071;28;20115;-80
2022/12/18 04:41:22;;;;;;;10.38;7.15;;;;;;;;;;5041783;28;20053;-80
2022/12/18 04:43:52;;;;;;;10.93;6.57;;;;;;;;;;5043145;28;20070;-80
2022/12/18 04:46:17;;;;;;;9.50;6.45;;;;;;;;;;5042634;28;20421;-80
2022/12/18 04:48:44;;;;;;;9.50;6.47;;;;;;;;;;5039768;28;20103;-80
2022/12/18 04:51:10;;;;;;;11.18;7.40;;;;;;;;;;5021620;28;20489;-80
2022/12/18 04:53:35;;;;;;;11.10;7.15;;;;;;;;;;5063657;28;20035;-80
2022/12/18 04:56:11;;;;;;;10.07;6.88;;;;;;;;;;5035040;28;20436;-80
2022/12/18 04:58:37;;;;;;;10.25;7.00;;;;;;;;;;5044350;28;20050;-81
2022/12/18 05:01:03;;;;;;;13.70;7.55;;;;;;;;;;5040520;28;20036;-81
2022/12/18 05:03:29;;;;;;;11.60;7.60;;;;;;;;;;5062675;28;20020;-81
2022/12/18 05:05:54;;;;;;;11.93;8.30;;;;;;;;;;5059334;28;20033;-80
2022/12/18 05:08:20;;;;;;;11.27;7.75;;;;;;;;;;5063436;28;20032;-80
2022/12/18 05:10:45;;;;;;;10.60;7.53;;;;;;;;;;5025544;28;20040;-81
2022/12/18 05:13:11;;;;;;;9.75;6.97;;;;;;;;;;5051063;28;20040;-81
2022/12/18 05:15:36;;;;;;;9.80;6.57;;;;;;;;;;5072680;28;20056;-81
2022/12/18 05:18:02;;;;;;;9.95;6.78;;;;;;;;;;5038095;28;20807;-80
2022/12/18 05:20:27;;;;;;;10.38;7.07;;;;;;;;;;5032969;28;20420;-80
2022/12/18 05:22:53;;;;;;;11.18;6.72;;;;;;;;;;5037164;28;20029;-80
2022/12/18 05:25:18;;;;;;;9.45;6.70;;;;;;;;;;5035985;28;20404;-80
2022/12/18 05:27:44;;;;;;;10.52;6.75;;;;;;;;;;5035907;28;20043;-81
2022/12/18 05:30:10;;;;;;;13.18;8.05;;;;;;;;;;5048690;28;20488;-82
2022/12/18 05:32:36;;;;;;;10.07;6.60;;;;;;;;;;5036057;28;20090;-81
2022/12/18 05:35:01;;;;;;;9.40;6.80;;;;;;;;;;5051925;28;20043;-81
2022/12/18 05:37:27;;;;;;;9.35;6.28;;;;;;;;;;5073460;28;20029;-81
2022/12/18 05:39:52;;;;;;;9.93;6.30;;;;;;;;;;5054563;28;20028;-81
2022/12/18 05:42:18;;;;;;;8.48;5.97;;;;;;;;;;5036707;28;20029;-81
2022/12/18 05:44:43;;;;;;;8.38;5.57;;;;;;;;;;5072666;28;20062;-80
2022/12/18 05:47:09;;;;;;;7.57;5.10;;;;;;;;;;5062817;28;20037;-81
2022/12/18 05:49:34;;;;;;;12.27;6.32;;;;;;;;;;5066031;28;20058;-81
2022/12/18 05:52:00;;;;;;;8.70;5.60;;;;;;;;;;5066542;28;20063;-81
2022/12/18 05:54:27;;;;;;;8.38;5.82;;;;;;;;;;5063719;28;20732;-82
2022/12/18 05:56:52;;;;;;;9.85;6.75;;;;;;;;;;5053800;28;20655;-82
2022/12/18 05:59:18;;;;;;;9.55;6.18;;;;;;;;;;5054114;28;20036;-83
2022/12/18 06:01:44;;;;;;;9.95;6.00;;;;;;;;;;5022170;28;20039;-82
2022/12/18 06:04:09;;;;;;;8.27;5.70;;;;;;;;;;5044128;28;20036;-81
2022/12/18 06:06:34;;;;;;;9.68;6.50;;;;;;;;;;5051616;28;20025;-80
2022/12/18 06:09:01;;;;;;;7.88;5.82;;;;;;;;;;5018760;28;20029;-81
2022/12/18 06:11:26;;;;;;;8.07;5.72;;;;;;;;;;5054154;28;20033;-81
2022/12/18 06:13:55;;;;;;;9.07;6.07;;;;;;;;;;5018319;28;20048;-81
2022/12/18 06:16:21;;;;;;;10.25;5.82;;;;;;;;;;5053470;28;20139;-81
2022/12/18 06:18:46;;;;;;;8.30;5.57;;;;;;;;;;5034992;28;20033;-82
2022/12/18 06:21:12;;;;;;;8.90;6.07;;;;;;;;;;5053244;28;20064;-81
2022/12/18 06:23:37;;;;;;;10.32;6.35;;;;;;;;;;5052641;28;20021;-81
2022/12/18 06:26:06;;;;;;;7.93;5.50;;;;;;;;;;5052782;28;20484;-80
2022/12/18 06:28:31;;;;;;;9.63;6.82;;;;;;;;;;5035662;28;20039;-80
2022/12/18 06:30:57;;;;;;;11.10;6.60;;;;;;;;;;5035043;28;20041;-81
2022/12/18 06:33:25;;;;;;;8.73;5.97;;;;;;;;;;5037903;28;20032;-81
2022/12/18 06:35:50;;;;;;;7.30;5.30;;;;;;;;;;5055429;28;20045;-80
2022/12/18 06:38:16;;;;;;;8.93;5.95;;;;;;;;;;5043455;28;20027;-81
2022/12/18 06:40:42;;;;;;;15.35;9.10;;;;;;;;;;5043176;28;20033;-82
2022/12/18 06:43:07;;;;;;;12.07;7.40;;;;;;;;;;5039309;28;20476;-81
2022/12/18 06:45:33;;;;;;;9.68;5.93;;;;;;;;;;5020571;28;20048;-80
2022/12/18 06:47:58;;;;;;;8.07;5.80;;;;;;;;;;5059614;28;20044;-81
2022/12/18 06:50:24;;;;;;;9.30;5.95;;;;;;;;;;5038744;28;20387;-82
2022/12/18 06:52:49;;;;;;;8.38;5.90;;;;;;;;;;5041527;28;20036;-80
2022/12/18 06:55:15;;;;;;;8.40;5.90;;;;;;;;;;5055751;28;20031;-81
2022/12/18 06:57:40;;;;;;;9.80;6.68;;;;;;;;;;5059427;28;20044;-81
2022/12/18 07:00:06;;;;;;;8.40;5.97;;;;;;;;;;5060858;28;20427;-82
2022/12/18 07:02:32;;;;;;;9.20;6.40;;;;;;;;;;5035540;28;20028;-80
2022/12/18 07:04:57;;;;;;;8.02;5.65;;;;;;;;;;5038904;28;20036;-81
2022/12/18 07:07:23;;;;;;;8.98;6.35;;;;;;;;;;5016527;28;20468;-81
2022/12/18 07:09:51;;;;;;;10.32;6.55;;;;;;;;;;5053570;28;20043;-79
2022/12/18 07:12:17;;;;;;;8.85;6.20;;;;;;;;;;5042769;28;20059;-80
2022/12/18 07:14:42;;;;;;;9.75;6.18;;;;;;;;;;5059124;28;20060;-79
2022/12/18 07:17:08;;;;;;;10.60;6.70;;;;;;;;;;5064549;28;20637;-79
2022/12/18 07:19:33;;;;;;;11.13;7.20;;;;;;;;;;5053210;28;20408;-79
2022/12/18 07:21:59;;;;;;;10.38;6.75;;;;;;;;;;5048117;28;20027;-79
2022/12/18 07:24:24;;;;;;;9.93;6.75;;;;;;;;;;5044892;28;20037;-79
2022/12/18 07:26:50;;;;;;;8.68;6.25;;;;;;;;;;5023188;28;20751;-80
2022/12/18 07:29:15;;;;;;;9.43;6.15;;;;;;;;;;5033522;28;20367;-80
2022/12/18 07:31:41;;;;;;;10.07;6.80;;;;;;;;;;5067580;28;20032;-79
2022/12/18 07:34:09;;;;;;;9.70;6.68;;;;;;;;;;5050921;28;20064;-80
2022/12/18 07:36:35;;;;;;;9.85;6.68;;;;;;;;;;5052597;28;20059;-80
2022/12/18 07:39:00;;;;;;;10.35;6.65;;;;;;;;;;5045413;28;20503;-80
2022/12/18 07:41:26;;;;;;;8.27;5.85;;;;;;;;;;5063399;28;20108;-85
2022/12/18 07:43:51;;;;;;;8.20;5.45;;;;;;;;;;5070640;28;20117;-81
2022/12/18 07:46:17;;;;;;;7.47;5.45;;;;;;;;;;5067137;28;20476;-81
2022/12/18 07:48:42;;;;;;;6.32;4.47;;;;;;;;;;5043240;28;20036;-82
2022/12/18 07:51:08;;;;;;;7.50;4.88;;;;;;;;;;5061215;28;20025;-79
2022/12/18 07:53:34;;;;;;;8.25;5.50;;;;;;;;;;5055402;28;20037;-82
2022/12/18 07:56:01;;;;;;;8.65;5.85;;;;;;;;;;5037882;28;20222;-82
2022/12/18 07:58:26;;;;;;;7.78;5.03;;;;;;;;;;5037174;28;20060;-83
2022/12/18 08:00:52;;;;;;;8.65;5.47;;;;;;;;;;5039977;28;20048;-83
2022/12/18 08:03:17;;;;;;;13.15;7.90;;;;;;;;;;5055369;28;20045;-81
2022/12/18 08:05:43;;;;;;;9.25;5.90;;;;;;;;;;5040784;28;20033;-81
2022/12/18 08:08:09;;;;;;;8.48;5.78;;;;;;;;;;5041182;28;20495;-80
2022/12/18 08:10:34;;;;;;;12.02;6.70;;;;;;;;;;5069186;28;20039;-81
2022/12/18 08:13:00;;;;;;;7.93;6.10;;;;;;;;;;5035901;28;20501;-81
2022/12/18 08:15:25;;;;;;;8.93;6.47;;;;;;;;;;5032702;28;20110;-80
2022/12/18 08:17:51;;;;;;;12.57;7.45;;;;;;;;;;5062944;28;20029;-81
2022/12/18 08:20:18;;;;;;;10.02;6.60;;;;;;;;;;5063462;28;20035;-79
2022/12/18 08:22:43;;;;;;;12.10;7.65;;;;;;;;;;5065877;28;20032;-81
2022/12/18 08:25:09;;;;;;;10.35;6.95;;;;;;;;;;5067262;28;20021;-80
2022/12/18 08:27:34;;;;;;;11.38;7.43;;;;;;;;;;5045668;28;20032;-81
2022/12/18 08:30:00;;;;;;;10.50;6.47;;;;;;;;;;5065696;28;20127;-79
2022/12/18 08:32:26;;;;;;;10.48;7.32;;;;;;;;;;5043588;28;20464;-81
2022/12/18 08:34:51;;;;;;;10.90;7.22;;;;;;;;;;5046943;28;20029;-81
2022/12/18 08:37:18;;;;;;;10.48;6.65;;;;;;;;;;5064865;28;20040;-82
2022/12/18 08:39:43;;;;;;;10.68;6.93;;;;;;;;;;5050227;28;20392;-80
2022/12/18 08:44:53;;;;;;;10.77;6.90;;;;;;;;;;5058180;28;20045;-80
2022/12/18 08:47:18;;;;;;;10.93;6.85;;;;;;;;;;5067265;28;20033;-81
2022/12/18 08:49:44;;;;;;;10.43;6.78;;;;;;;;;;5049418;28;20075;-82
2022/12/18 08:52:09;;;;;;;10.40;7.07;;;;;;;;;;5064085;28;20032;-84
2022/12/18 08:54:35;;;;;;;11.13;6.72;;;;;;;;;;5051520;28;20036;-81
2022/12/18 08:57:00;;;;;;;10.20;6.70;;;;;;;;;;5067886;28;20484;-82
2022/12/18 08:59:26;;;;;;;10.40;6.57;;;;;;;;;;5067080;28;20407;-81
2022/12/18 09:01:53;;;;;;;12.18;7.30;;;;;;;;;;5064952;28;20029;-84
2022/12/18 09:04:18;;;;;;;10.85;6.85;;;;;;;;;;5049855;28;20025;-81
2022/12/18 09:06:43;;;;;;;11.65;6.85;;;;;;;;;;5042268;28;20546;-82
2022/12/18 09:09:09;;;;;;;10.60;6.80;;;;;;;;;;5054055;28;20504;-82
2022/12/18 09:11:34;;;;;;;10.30;6.95;;;;;;;;;;5029442;28;20049;-82
2022/12/18 09:14:00;;;;;;;9.75;7.00;;;;;;;;;;5053940;28;20029;-81
2022/12/18 09:16:26;;;;;;;9.85;6.47;;;;;;;;;;5060451;28;20053;-82
2022/12/18 09:18:53;;;;;;;9.07;6.43;;;;;;;;;;5037166;28;20043;-82
2022/12/18 09:21:19;;;;;;;12.13;6.90;;;;;;;;;;5037316;28;20029;-81
2022/12/18 09:23:48;;;;;;;10.57;6.40;;;;;;;;;;5037903;28;20040;-83
2022/12/18 09:26:14;;;;;;;8.07;5.65;;;;;;;;;;5055343;28;20055;-82
2022/12/18 09:28:39;;;;;;;11.07;6.75;;;;;;;;;;5038582;28;20112;-83
2022/12/18 09:31:06;;;;;;;11.05;6.70;;;;;;;;;;5061323;28;20040;-84
2022/12/18 09:33:32;;;;;;;9.23;6.32;;;;;;;;;;5067062;28;20144;-82
2022/12/18 09:35:57;;;;;;;9.80;6.80;;;;;;;;;;5032464;28;20119;-82
2022/12/18 09:38:23;;;;;;;9.82;6.30;;;;;;;;;;5043513;28;20032;-83
2022/12/18 09:40:49;;;;;;;11.15;6.95;;;;;;;;;;5066352;28;20025;-83
2022/12/18 09:43:18;;;;;;;10.68;6.90;;;;;;;;;;5068146;28;20459;-83
2022/12/18 09:45:44;;;;;;;9.88;6.78;;;;;;;;;;5053529;28;20042;-84
2022/12/18 09:48:11;;;;;;;11.75;7.38;;;;;;;;;;5045355;28;20033;-83
2022/12/18 09:50:37;;;;;;;10.65;7.00;;;;;;;;;;5051392;28;20025;-84
2022/12/18 09:53:04;;;;;;;9.85;6.25;;;;;;;;;;5044294;28;20041;-82
2022/12/18 09:55:33;;;;;;;13.10;7.60;;;;;;;;;;5063155;28;20028;-84
2022/12/18 09:58:01;;;;;;;8.73;5.20;;;;;;;;;;5047912;28;20112;-84
2022/12/18 10:00:26;;;;;;;10.20;7.07;;;;;;;;;;5047818;28;20122;-83
2022/12/18 10:02:53;;;;;;;10.50;6.38;;;;;;;;;;5045783;28;20048;-83
2022/12/18 10:05:37;;;;;;;11.98;7.45;;;;;;;;;;5040738;28;20033;-82
2022/12/18 10:08:05;;;;;;;10.18;6.82;;;;;;;;;;5044661;28;20062;-83
2022/12/18 10:10:34;;;;;;;10.18;5.93;;;;;;;;;;5041292;28;20028;-82
2022/12/18 10:13:06;;;;;;;9.70;6.60;;;;;;;;;;5063929;28;20040;-83
2022/12/18 10:15:34;;;;;;;11.48;7.68;;;;;;;;;;5060230;28;20079;-83
2022/12/18 10:18:12;;;;;;;10.60;7.40;;;;;;;;;;5032932;28;20429;-83
2022/12/18 10:20:43;;;;;;;10.20;7.18;;;;;;;;;;5063961;28;20025;-85
2022/12/18 10:23:24;;;;;;;8.13;5.25;;;;;;;;;;5050917;28;20403;-84
2022/12/18 10:26:00;;;;;;;11.68;6.97;;;;;;;;;;5041747;28;20039;-81
2022/12/18 10:28:25;;;;;;;11.30;6.53;;;;;;;;;;5040883;28;20029;-82
2022/12/18 10:30:51;;;;;;;9.73;6.18;;;;;;;;;;5045864;28;20579;-83
2022/12/18 10:33:20;;;;;;;9.82;6.43;;;;;;;;;;5048662;28;20021;-83
2022/12/18 10:35:46;;;;;;;7.95;4.82;;;;;;;;;;5031911;28;20416;-81
2022/12/18 10:38:12;;;;;;;11.07;7.07;;;;;;;;;;5044744;28;20118;-83
2022/12/18 10:40:56;;;;;;;9.70;6.43;;;;;;;;;;5037623;28;20025;-84
2022/12/18 10:43:23;;;;;;;12.63;6.90;;;;;;;;;;5045522;28;20461;-83
2022/12/18 10:45:59;;;;;;;9.00;6.30;;;;;;;;;;5048047;28;20044;-83
2022/12/18 10:48:24;;;;;;;10.35;6.05;;;;;;;;;;5068388;28;20043;-84
2022/12/18 10:50:51;;;;;;;9.18;6.18;;;;;;;;;;5067625;28;20028;-86
2022/12/18 10:53:36;;;;;;;8.40;5.72;;;;;;;;;;5048485;28;20047;-83
2022/12/18 10:56:02;;;;;;;11.73;7.40;;;;;;;;;;5046211;28;20063;-84
2022/12/18 10:58:27;;;;;;;;;;;;;;;;;;5051190;28;20017;-84
2022/12/18 11:01:02;;;;;;;10.07;5.88;;;;;;;;;;5056943;28;20014;-84
2022/12/18 11:03:29;;;;;;;9.82;6.57;;;;;;;;;;5052055;28;20039;-83
2022/12/18 11:06:04;;;;;;;8.48;5.28;;;;;;;;;;5062763;28;20418;-84
2022/12/18 11:08:29;;;;;;;10.73;6.68;;;;;;;;;;5059683;28;20025;-85
2022/12/18 11:10:55;;;;;;;10.88;7.07;;;;;;;;;;5062810;28;20480;-83
2022/12/18 11:13:21;;;;;;;10.10;6.55;;;;;;;;;;5062796;28;20384;-83
2022/12/18 11:15:46;;;;;;;10.35;6.53;;;;;;;;;;5047029;28;20055;-86
2022/12/18 11:18:28;;;;;;;9.95;6.63;;;;;;;;;;5045258;28;20025;-85
2022/12/18 11:20:58;;;;;;;10.18;6.28;;;;;;;;;;5032237;28;20482;-85
2022/12/18 11:23:24;;;;;;;9.93;6.18;;;;;;;;;;5045795;28;20522;-84
2022/12/18 11:25:57;;;;;;;9.38;5.68;;;;;;;;;;5051170;28;20040;-84
2022/12/18 11:28:38;;;;;;;10.10;6.18;;;;;;;;;;5067076;28;20036;-85
2022/12/18 11:31:16;;;;;;;11.10;6.97;;;;;;;;;;5047059;28;20032;-82
2022/12/18 11:33:56;;;;;;;11.10;6.95;;;;;;;;;;5037694;28;20115;-84
2022/12/18 11:36:21;;;;;;;10.63;6.43;;;;;;;;;;5053684;28;20034;-83
2022/12/18 11:38:47;;;;;;;9.45;6.38;;;;;;;;;;5048313;28;20036;-82
2022/12/18 11:44:11;;;;;;;9.25;5.95;;;;;;;;;;5045955;28;20064;-84
2022/12/18 11:46:43;;;;;;;9.65;5.80;;;;;;;;;;5043490;28;20036;-84
2022/12/18 11:49:33;;;;;;;9.23;6.13;;;;;;;;;;5037928;28;20044;-86
2022/12/18 11:52:16;;;;;;;8.55;5.00;;;;;;;;;;5052066;28;20079;-85
2022/12/18 11:54:41;;;;;;;8.25;5.22;;;;;;;;;;5053614;28;20124;-84
2022/12/18 11:57:18;;;;;;;7.95;5.22;;;;;;;;;;5014717;28;20060;-85
2022/12/18 12:00:03;;;;;;;9.00;5.45;;;;;;;;;;5036233;28;20024;-83
2022/12/18 12:02:46;;;;;;;6.68;3.90;;;;;;;;;;5044955;28;20102;-84
2022/12/18 12:05:18;;;;;;;8.00;5.20;;;;;;;;;;5054664;28;20067;-83
2022/12/18 12:07:46;;;;;;;7.68;5.30;;;;;;;;;;5055723;28;20056;-83
2022/12/18 12:10:12;;;;;;;8.20;5.35;;;;;;;;;;5028293;28;20060;-83
2022/12/18 12:12:46;;;;;;;8.55;5.47;;;;;;;;;;5055087;28;20063;-83
2022/12/18 12:15:12;;;;;;;8.57;5.20;;;;;;;;;;5054862;28;20149;-83
2022/12/18 12:17:39;;;;;;;8.55;4.88;;;;;;;;;;5023115;28;20428;-84
2022/12/18 12:20:26;;;;;;;7.45;5.15;;;;;;;;;;5037332;28;20044;-82
2022/12/18 12:22:52;;;;;;;7.05;4.57;;;;;;;;;;5050286;28;20547;-83
2022/12/18 12:25:36;;;;;;;8.43;5.03;;;;;;;;;;5055253;28;20037;-84
2022/12/18 12:28:24;;;;;;;8.90;5.32;;;;;;;;;;5054901;28;20045;-83
2022/12/18 12:30:50;;;;;;;8.75;5.07;;;;;;;;;;5017130;28;20049;-85
2022/12/18 12:33:18;;;;;;;8.43;5.05;;;;;;;;;;5055594;28;20357;-84
2022/12/18 12:36:07;;;;;;;9.05;5.22;;;;;;;;;;5031418;28;20048;-83
2022/12/18 12:38:37;;;;;;;9.18;5.18;;;;;;;;;;5054070;28;20349;-83
2022/12/18 12:43:12;;;;;;;8.88;5.63;;;;;;;;;;5055610;28;20021;-84
2022/12/18 12:43:52;;;;;;;10.40;5.57;;;;;;;;;;5065528;28;20127;-84
2022/12/18 12:46:18;;;;;;;12.07;6.28;;;;;;;;;;5036587;28;20087;-84
2022/12/18 12:48:45;;;;;;;8.02;5.07;;;;;;;;;;5043629;28;20041;-86
2022/12/18 12:51:29;;;;;;;10.55;5.20;;;;;;;;;;5041638;28;20032;-82
2022/12/18 12:53:56;;;;;;;10.25;5.50;;;;;;;;;;5040360;28;20033;-83
2022/12/18 12:56:21;;;;;;;10.32;6.20;;;;;;;;;;5033030;28;20037;-85
2022/12/18 12:58:47;;;;;;;10.23;5.90;;;;;;;;;;5020226;28;20090;-83
2022/12/18 13:01:16;;;;;;;14.02;7.05;;;;;;;;;;5054609;28;20028;-83
2022/12/18 13:03:48;;;;;;;12.98;7.40;;;;;;;;;;5036159;28;20240;-84
2022/12/18 13:06:19;;;;;;;14.30;7.25;;;;;;;;;;5036116;28;20161;-84
2022/12/18 13:08:57;;;;;;;13.27;7.03;;;;;;;;;;5049523;28;20460;-84
2022/12/18 13:14:32;;;;;;;14.85;7.32;;;;;;;;;;5021931;28;20574;-84
2022/12/18 13:17:14;;;;;;;18.38;7.20;;;;;;;;;;5025817;28;20503;-84
2022/12/18 13:19:39;;;;;;;16.48;8.70;;;;;;;;;;5020070;28;20035;-83
2022/12/18 13:22:10;;;;;;;16.52;8.07;;;;;;;;;;5036396;28;20387;-84
2022/12/18 13:24:35;;;;;;;15.80;7.45;;;;;;;;;;5019199;28;20038;-83
2022/12/18 13:27:04;;;;;;;16.95;8.15;;;;;;;;;;5019487;28;20276;-83
2022/12/18 13:29:45;;;;;;;16.60;7.72;;;;;;;;;;5041003;28;20488;-83
2022/12/18 13:32:23;;;;;;;13.35;7.03;;;;;;;;;;5056339;28;20044;-85
2022/12/18 13:34:49;;;;;;;13.73;7.78;;;;;;;;;;5057284;28;20025;-84
2022/12/18 13:37:39;;;;;;;16.63;8.07;;;;;;;;;;5023928;28;20333;-84
2022/12/18 13:40:22;;;;;;;14.85;7.90;;;;;;;;;;5040533;28;20037;-84
2022/12/18 13:45:36;;;;;;;15.80;7.95;;;;;;;;;;5038926;28;20040;-83
2022/12/18 13:48:02;;;;;;;16.05;8.48;;;;;;;;;;5054429;28;20500;-84
2022/12/18 13:50:28;;;;;;;16.83;7.85;;;;;;;;;;5054008;28;20119;-86
2022/12/18 13:52:53;;;;;;;18.52;8.38;;;;;;;;;;5016712;28;20037;-83
2022/12/18 13:55:19;;;;;;;16.35;8.50;;;;;;;;;;5035782;28;20032;-82
2022/12/18 13:57:45;;;;;;;19.17;8.00;;;;;;;;;;5036080;28;20024;-83
2022/12/18 14:00:19;;;;;;;18.83;8.30;;;;;;;;;;5030870;28;20057;-83
2022/12/18 14:02:45;;;;;;;16.85;8.00;;;;;;;;;;5027684;28;20029;-84
2022/12/18 14:05:32;;;;;;;16.73;7.80;;;;;;;;;;5039931;28;20083;-84
2022/12/18 14:08:15;;;;;;;15.90;8.23;;;;;;;;;;5017807;28;20037;-83
2022/12/18 14:10:42;;;;;;;15.25;8.48;;;;;;;;;;5034768;28;20033;-83
2022/12/18 14:13:08;;;;;;;17.60;8.15;;;;;;;;;;5052812;28;20021;-84
2022/12/18 14:15:43;;;;;;;15.35;8.07;;;;;;;;;;5035460;28;20487;-84
2022/12/18 14:18:27;;;;;;;17.05;7.50;;;;;;;;;;5027594;28;20020;-85
2022/12/18 14:20:54;;;;;;;17.10;7.60;;;;;;;;;;5050477;28;20688;-83
2022/12/18 14:23:33;;;;;;;15.50;7.18;;;;;;;;;;5072911;28;20468;-85
2022/12/18 14:25:59;;;;;;;15.95;7.07;;;;;;;;;;5054698;28;20085;-85
2022/12/18 14:28:26;;;;;;;12.52;6.95;;;;;;;;;;5044746;28;20029;-84
2022/12/18 14:30:51;;;;;;;15.73;7.72;;;;;;;;;;5027297;28;20035;-83
2022/12/18 14:33:26;;;;;;;13.07;6.65;;;;;;;;;;5053532;28;20476;-84
2022/12/18 14:35:53;;;;;;;12.88;6.45;;;;;;;;;;5065857;28;20044;-84
2022/12/18 14:38:21;;;;;;;13.23;6.55;;;;;;;;;;5035232;28;20103;-83
2022/12/18 14:40:46;;;;;;;11.48;6.13;;;;;;;;;;5052553;28;20032;-84
2022/12/18 14:43:12;;;;;;;13.20;6.47;;;;;;;;;;5047678;28;20031;-85
2022/12/18 14:45:44;;;;;;;10.70;5.75;;;;;;;;;;5018514;28;20512;-84
2022/12/18 14:48:14;;;;;;;10.07;5.88;;;;;;;;;;5045534;28;20037;-84
2022/12/18 14:50:39;;;;;;;12.00;6.20;;;;;;;;;;5026307;28;20800;-82
2022/12/18 14:53:05;;;;;;;13.52;5.53;;;;;;;;;;5034348;28;20111;-82